Time;durP1;ratioP1;P1;durP2;ratioP2;P2;SDS_P1;SDS_P2;PMS_P1;PMS_P2;Temp;Humidity;BMP_temperature;BMP_pressure;BME280_temperature;BME280_humidity;BME280_pressure;Samples;Min_cycle;Max_cycle;Signal;HPM_P1;HPM_P2
2021/12/02 00:00:39;;;;;;;21.00;16.00;;;5.10;99.90;;;;;;5051458;28;20455;-69
2021/12/02 00:03:08;;;;;;;24.63;15.33;;;5.20;99.90;;;;;;5051670;28;20537;-69
2021/12/02 00:05:35;;;;;;;24.80;17.20;;;5.10;99.90;;;;;;5051541;28;21011;-67
2021/12/02 00:08:02;;;;;;;24.87;16.67;;;5.00;99.90;;;;;;5052170;28;20470;-69
2021/12/02 00:10:31;;;;;;;22.97;15.10;;;5.10;99.90;;;;;;5051551;28;20461;-67
2021/12/02 00:12:59;;;;;;;23.50;15.50;;;4.90;99.90;;;;;;5052044;28;20589;-68
2021/12/02 00:15:32;;;;;;;27.40;17.17;;;4.90;99.90;;;;;;5052031;28;21317;-68
2021/12/02 00:18:29;;;;;;;22.10;15.53;;;4.90;99.90;;;;;;5051584;28;20458;-69
2021/12/02 00:21:05;;;;;;;31.67;16.87;;;5.00;99.90;;;;;;5051607;28;20537;-69
2021/12/02 00:23:36;;;;;;;31.40;17.40;;;4.70;99.90;;;;;;5050911;28;20974;-70
2021/12/02 00:26:09;;;;;;;25.63;16.13;;;4.70;99.90;;;;;;5050528;28;20935;-67
2021/12/02 00:28:38;;;;;;;23.73;17.27;;;4.50;99.90;;;;;;5050827;28;20454;-67
2021/12/02 00:31:05;;;;;;;22.10;16.57;;;4.50;99.90;;;;;;5051360;28;20449;-68
2021/12/02 00:33:34;;;;;;;23.00;16.97;;;4.20;99.90;;;;;;5051390;28;20455;-68
2021/12/02 00:36:02;;;;;;;24.80;17.00;;;4.20;99.90;;;;;;5051560;28;21008;-68
2021/12/02 00:38:30;;;;;;;23.93;15.93;;;4.20;99.90;;;;;;5051343;28;20544;-67
2021/12/02 00:40:57;;;;;;;20.57;14.90;;;4.30;99.90;;;;;;5050844;28;20458;-68
2021/12/02 00:43:24;;;;;;;23.23;15.47;;;4.50;99.90;;;;;;5050926;28;20517;-68
2021/12/02 00:45:51;;;;;;;24.70;17.17;;;4.40;99.90;;;;;;5051509;28;20477;-70
2021/12/02 00:48:18;;;;;;;20.60;15.80;;;4.30;99.90;;;;;;5051036;28;20489;-68
2021/12/02 00:50:49;;;;;;;24.07;14.77;;;4.30;99.90;;;;;;5051229;28;20452;-70
2021/12/02 00:53:20;;;;;;;23.77;15.20;;;4.40;99.90;;;;;;5050773;28;20903;-70
2021/12/02 00:55:49;;;;;;;26.43;16.77;;;4.40;99.90;;;;;;5050633;28;20479;-70
2021/12/02 00:58:19;;;;;;;25.07;15.00;;;4.40;99.90;;;;;;5050683;28;21333;-68
2021/12/02 01:00:49;;;;;;;23.03;14.47;;;4.20;99.90;;;;;;5051423;28;20537;-67
2021/12/02 01:03:17;;;;;;;22.83;15.37;;;4.20;99.90;;;;;;5050292;28;20466;-69
2021/12/02 01:05:44;;;;;;;23.23;15.97;;;4.40;99.90;;;;;;5050547;28;20477;-70
2021/12/02 01:08:13;;;;;;;21.57;14.63;;;4.50;99.90;;;;;;5051025;28;20805;-69
2021/12/02 01:10:42;;;;;;;22.53;15.73;;;4.60;99.90;;;;;;5050669;28;20462;-68
2021/12/02 01:13:09;;;;;;;23.67;14.73;;;4.50;99.90;;;;;;5051261;28;20452;-71
2021/12/02 01:15:36;;;;;;;27.23;16.23;;;4.40;99.90;;;;;;5051317;28;20497;-68
2021/12/02 01:18:04;;;;;;;30.70;17.73;;;4.60;99.90;;;;;;5050442;28;20450;-67
2021/12/02 01:20:32;;;;;;;23.43;16.20;;;4.60;99.90;;;;;;5050938;28;20447;-67
2021/12/02 01:23:01;;;;;;;24.00;16.43;;;4.60;99.90;;;;;;5050718;28;20501;-68
2021/12/02 01:25:31;;;;;;;23.03;16.00;;;4.40;99.90;;;;;;5050411;28;20494;-68
2021/12/02 01:27:59;;;;;;;25.87;16.60;;;4.50;99.90;;;;;;5050639;28;20460;-68
2021/12/02 01:30:28;;;;;;;24.63;17.70;;;6.30;99.90;;;;;;5050864;28;20458;-67
2021/12/02 01:33:00;;;;;;;21.70;14.43;;;4.40;99.90;;;;;;5050516;28;20453;-70
2021/12/02 01:35:28;;;;;;;23.03;15.73;;;4.60;99.90;;;;;;5030285;28;20470;-70
2021/12/02 01:37:56;;;;;;;22.63;15.63;;;4.60;99.90;;;;;;5030542;28;20469;-70
2021/12/02 01:40:24;;;;;;;27.03;17.87;;;4.40;99.90;;;;;;5030648;28;20454;-68
2021/12/02 01:42:55;;;;;;;20.07;15.20;;;4.50;99.90;;;;;;5030476;28;20484;-68
2021/12/02 01:45:24;;;;;;;24.70;16.13;;;4.60;99.90;;;;;;5030600;28;20498;-69
2021/12/02 01:47:54;;;;;;;19.30;14.70;;;4.60;99.90;;;;;;5043102;28;20471;-69
2021/12/02 01:50:23;;;;;;;27.20;16.07;;;4.70;99.90;;;;;;5050557;28;20455;-67
2021/12/02 01:52:55;;;;;;;21.73;14.13;;;4.60;99.90;;;;;;5048747;28;20455;-67
2021/12/02 01:55:23;;;;;;;18.90;14.87;;;4.40;99.90;;;;;;5050067;28;20495;-70
2021/12/02 01:58:00;;;;;;;20.63;13.83;;;4.10;99.90;;;;;;5050179;28;20452;-68
2021/12/02 02:00:32;;;;;;;22.50;15.27;;;4.00;99.90;;;;;;5050433;28;20494;-69
2021/12/02 02:03:00;;;;;;;21.13;15.27;;;3.80;99.90;;;;;;5049775;28;20461;-67
2021/12/02 02:05:28;;;;;;;24.10;14.90;;;3.70;99.90;;;;;;5049268;28;20983;-68
2021/12/02 02:08:00;;;;;;;21.07;14.90;;;3.40;99.90;;;;;;5050096;28;20476;-68
2021/12/02 02:10:28;;;;;;;20.70;14.43;;;3.30;99.90;;;;;;5048973;28;20466;-68
2021/12/02 02:12:58;;;;;;;19.33;14.43;;;3.60;99.90;;;;;;5049385;28;20493;-69
2021/12/02 02:15:26;;;;;;;22.30;13.90;;;3.80;99.90;;;;;;5049899;28;20984;-68
2021/12/02 02:17:57;;;;;;;18.70;13.40;;;3.80;99.90;;;;;;5049877;28;20450;-68
2021/12/02 02:20:37;;;;;;;25.00;14.80;;;3.20;99.90;;;;;;5049956;28;21214;-68
2021/12/02 02:23:05;;;;;;;23.20;14.60;;;4.10;99.90;;;;;;5049527;28;20781;-68
2021/12/02 02:25:32;;;;;;;19.93;14.83;;;4.00;99.90;;;;;;5048838;28;20537;-68
2021/12/02 02:27:59;;;;;;;16.77;12.80;;;4.20;99.90;;;;;;5049184;28;20461;-68
2021/12/02 02:30:27;;;;;;;18.83;13.23;;;4.10;99.90;;;;;;5048204;28;20952;-70
2021/12/02 02:32:54;;;;;;;20.43;14.03;;;4.20;99.90;;;;;;5049917;28;20462;-67
2021/12/02 02:35:21;;;;;;;22.73;14.80;;;4.30;99.90;;;;;;5049845;28;20462;-69
2021/12/02 02:37:49;;;;;;;23.07;14.20;;;4.40;99.90;;;;;;5049611;28;20452;-68
2021/12/02 02:40:17;;;;;;;19.80;14.20;;;4.50;99.90;;;;;;5049693;28;20965;-68
2021/12/02 02:42:49;;;;;;;23.87;14.10;;;4.40;99.90;;;;;;5049669;28;20450;-69
2021/12/02 02:45:16;;;;;;;19.83;13.33;;;4.40;99.90;;;;;;5049671;28;20501;-70
2021/12/02 02:47:44;;;;;;;22.10;14.50;;;4.30;99.90;;;;;;5049710;28;20460;-67
2021/12/02 02:50:13;;;;;;;25.00;14.80;;;4.10;99.90;;;;;;5049467;28;20450;-70
2021/12/02 02:52:41;;;;;;;21.47;14.10;;;3.90;99.90;;;;;;5049038;28;20518;-68
2021/12/02 02:55:13;;;;;;;19.73;12.90;;;3.80;99.90;;;;;;5049177;28;20560;-67
2021/12/02 02:57:44;;;;;;;20.20;12.63;;;4.00;99.90;;;;;;5049378;28;20948;-68
2021/12/02 03:00:16;;;;;;;19.03;13.83;;;4.10;99.90;;;;;;5049401;28;20464;-68
2021/12/02 03:02:51;;;;;;;21.00;12.87;;;4.40;99.90;;;;;;5049067;28;20557;-67
2021/12/02 03:05:24;;;;;;;17.93;11.60;;;4.30;99.90;;;;;;5048785;28;20490;-70
2021/12/02 03:07:55;;;;;;;19.20;11.27;;;4.40;99.90;;;;;;5049229;28;20458;-68
2021/12/02 03:10:32;;;;;;;19.43;12.03;;;4.50;99.90;;;;;;5048917;28;20466;-69
2021/12/02 03:13:10;;;;;;;19.73;13.17;;;4.50;99.90;;;;;;5048967;28;20485;-71
2021/12/02 03:18:23;;;;;;;16.53;12.00;;;4.60;99.90;;;;;;5049084;28;20480;-66
2021/12/02 03:20:50;;;;;;;18.30;12.53;;;4.70;99.90;;;;;;5049172;28;20455;-66
2021/12/02 03:23:18;;;;;;;19.43;11.83;;;4.80;99.90;;;;;;5049213;28;20453;-67
2021/12/02 03:25:46;;;;;;;19.50;12.60;;;4.80;99.90;;;;;;5048887;28;20490;-67
2021/12/02 03:28:15;;;;;;;16.60;11.63;;;4.80;99.90;;;;;;5048932;28;20504;-68
2021/12/02 03:30:42;;;;;;;17.87;11.50;;;4.70;99.90;;;;;;5049005;28;20862;-67
2021/12/02 03:33:09;;;;;;;19.50;11.70;;;4.80;99.90;;;;;;5048566;28;20450;-67
2021/12/02 03:35:37;;;;;;;15.90;11.47;;;4.80;99.90;;;;;;5049088;28;20527;-67
2021/12/02 03:38:04;;;;;;;17.70;12.50;;;4.80;99.90;;;;;;5048495;28;20450;-65
2021/12/02 03:40:31;;;;;;;24.60;12.40;;;4.80;99.90;;;;;;5048804;28;20508;-65
2021/12/02 03:42:59;;;;;;;16.60;11.70;;;4.70;99.90;;;;;;5048837;28;20926;-66
2021/12/02 03:45:26;;;;;;;16.00;10.73;;;4.70;99.90;;;;;;5049038;28;20493;-67
2021/12/02 03:47:54;;;;;;;17.90;11.80;;;4.60;99.90;;;;;;5048974;28;20452;-67
2021/12/02 03:50:21;;;;;;;17.60;12.33;;;4.40;99.90;;;;;;5048899;28;20545;-68
2021/12/02 03:52:48;;;;;;;14.70;11.00;;;4.40;99.90;;;;;;5048776;28;20807;-67
2021/12/02 03:55:15;;;;;;;14.40;12.20;;;4.40;99.90;;;;;;5048881;28;20476;-67
2021/12/02 03:57:42;;;;;;;17.60;11.73;;;4.40;99.90;;;;;;5048897;28;20463;-69
2021/12/02 04:00:12;;;;;;;22.60;12.20;;;4.50;99.90;;;;;;5048828;28;20454;-71
2021/12/02 04:02:39;;;;;;;19.83;12.67;;;4.40;99.90;;;;;;5048795;28;20453;-69
2021/12/02 04:05:06;;;;;;;16.73;12.93;;;4.20;99.90;;;;;;5048113;28;20504;-68
2021/12/02 04:07:33;;;;;;;20.30;12.37;;;4.20;99.90;;;;;;5048544;28;20878;-71
2021/12/02 04:10:01;;;;;;;17.20;12.77;;;4.20;99.90;;;;;;5048150;28;20628;-69
2021/12/02 04:12:33;;;;;;;21.00;14.20;;;4.40;99.90;;;;;;5047173;28;20485;-68
2021/12/02 04:15:03;;;;;;;20.00;12.93;;;4.40;99.90;;;;;;5048696;28;20508;-69
2021/12/02 04:17:42;;;;;;;18.77;13.00;;;4.50;99.90;;;;;;5051807;28;20464;-67
2021/12/02 04:20:14;;;;;;;20.03;14.57;;;4.40;99.90;;;;;;5051950;28;20449;-71
2021/12/02 04:22:41;;;;;;;17.50;11.90;;;4.30;99.90;;;;;;5051982;28;21265;-69
2021/12/02 04:25:09;;;;;;;21.50;13.30;;;4.30;99.90;;;;;;5051915;28;20500;-69
2021/12/02 04:27:36;;;;;;;20.40;13.70;;;4.30;99.90;;;;;;5052089;28;20874;-67
2021/12/02 04:30:05;;;;;;;19.47;13.40;;;4.30;99.90;;;;;;5051688;28;20794;-67
2021/12/02 04:32:34;;;;;;;20.00;13.00;;;4.10;99.90;;;;;;5052005;28;20866;-71
2021/12/02 04:35:01;;;;;;;19.70;12.80;;;4.10;99.90;;;;;;5051899;28;20553;-70
2021/12/02 04:37:29;;;;;;;18.80;12.40;;;4.00;99.90;;;;;;5052277;28;20456;-69
2021/12/02 04:39:59;;;;;;;23.20;13.40;;;4.00;99.90;;;;;;5051613;28;21043;-71
2021/12/02 04:42:26;;;;;;;18.63;12.50;;;4.00;99.90;;;;;;5052188;28;20460;-70
2021/12/02 04:44:53;;;;;;;19.00;13.33;;;4.00;99.90;;;;;;5051451;28;20497;-70
2021/12/02 04:47:20;;;;;;;20.70;14.50;;;3.70;99.90;;;;;;5051421;28;20451;-70
2021/12/02 04:49:49;;;;;;;17.00;12.30;;;3.50;99.90;;;;;;5051381;28;20461;-70
2021/12/02 04:52:16;;;;;;;27.20;14.67;;;3.60;99.90;;;;;;5051513;28;20447;-70
2021/12/02 04:54:43;;;;;;;21.40;14.00;;;3.60;99.90;;;;;;5051481;28;20504;-70
2021/12/02 04:57:10;;;;;;;17.63;11.83;;;3.40;99.90;;;;;;5051270;28;20451;-69
2021/12/02 04:59:37;;;;;;;19.73;13.70;;;3.50;99.90;;;;;;5051386;28;20446;-70
2021/12/02 05:02:05;;;;;;;18.83;12.67;;;3.40;99.90;;;;;;5051437;28;20454;-71
2021/12/02 05:04:32;;;;;;;17.10;11.70;;;3.40;99.90;;;;;;5051049;28;20478;-72
2021/12/02 05:07:01;;;;;;;18.20;12.27;;;3.50;99.90;;;;;;5051560;28;20541;-74
2021/12/02 05:09:28;;;;;;;22.50;12.23;;;3.50;99.90;;;;;;5051034;28;20480;-70
2021/12/02 05:11:55;;;;;;;20.03;13.80;;;3.50;99.90;;;;;;5050877;28;20487;-71
2021/12/02 05:14:22;;;;;;;21.00;14.13;;;3.60;99.90;;;;;;5051191;28;20462;-73
2021/12/02 05:16:49;;;;;;;18.37;12.40;;;3.80;99.90;;;;;;5050872;28;20464;-73
2021/12/02 05:19:20;;;;;;;19.77;12.73;;;4.00;99.90;;;;;;5050826;28;20453;-76
2021/12/02 05:21:47;;;;;;;18.37;12.20;;;3.90;99.90;;;;;;5051416;28;20511;-73
2021/12/02 05:24:15;;;;;;;20.13;13.13;;;4.00;99.90;;;;;;5050860;28;20482;-75
2021/12/02 05:26:42;;;;;;;18.73;12.60;;;4.00;99.90;;;;;;5050133;28;20497;-76
2021/12/02 05:29:09;;;;;;;15.20;12.03;;;4.00;99.90;;;;;;5050286;28;20446;-75
2021/12/02 05:31:36;;;;;;;19.93;12.00;;;4.20;99.90;;;;;;5050919;28;20452;-74
2021/12/02 05:34:03;;;;;;;19.73;14.67;;;4.20;99.90;;;;;;5051181;28;20485;-75
2021/12/02 05:36:30;;;;;;;23.40;14.20;;;4.20;99.90;;;;;;5050892;28;20465;-68
2021/12/02 05:38:57;;;;;;;22.33;14.17;;;4.20;99.90;;;;;;5050330;28;20454;-70
2021/12/02 05:41:29;;;;;;;19.97;13.67;;;4.20;99.90;;;;;;5050695;28;20458;-72
2021/12/02 05:43:56;;;;;;;21.97;14.70;;;4.20;99.90;;;;;;5050590;28;20515;-74
2021/12/02 05:46:23;;;;;;;22.83;15.27;;;4.20;99.90;;;;;;5050546;28;20829;-72
2021/12/02 05:48:50;;;;;;;21.30;15.70;;;4.10;99.90;;;;;;5050769;28;20456;-72
2021/12/02 05:51:17;;;;;;;21.53;15.70;;;4.10;99.90;;;;;;5050800;28;20459;-71
2021/12/02 05:53:44;;;;;;;17.87;13.93;;;4.10;99.90;;;;;;5050500;28;20452;-70
2021/12/02 05:56:11;;;;;;;24.10;15.00;;;4.20;99.90;;;;;;5050018;28;20477;-73
2021/12/02 05:58:40;;;;;;;21.00;14.53;;;4.20;99.90;;;;;;5050282;28;20453;-72
2021/12/02 06:01:07;;;;;;;22.57;14.60;;;3.90;99.90;;;;;;5049890;28;20458;-70
2021/12/02 06:03:36;;;;;;;19.23;12.90;;;3.90;99.90;;;;;;5050266;28;20457;-71
2021/12/02 06:06:03;;;;;;;27.07;15.90;;;4.00;99.90;;;;;;5049619;28;20497;-69
2021/12/02 06:08:31;;;;;;;20.90;14.57;;;3.90;99.90;;;;;;5050083;28;20457;-69
2021/12/02 06:10:58;;;;;;;20.13;15.80;;;4.10;99.90;;;;;;5049942;28;20468;-68
2021/12/02 06:13:26;;;;;;;19.60;14.87;;;4.20;99.90;;;;;;5049999;28;20461;-70
2021/12/02 06:15:55;;;;;;;21.90;15.83;;;4.30;99.90;;;;;;5049844;28;20489;-69
2021/12/02 06:18:22;;;;;;;19.70;14.20;;;4.40;99.90;;;;;;5049816;28;20459;-68
2021/12/02 06:20:53;;;;;;;21.53;16.00;;;4.50;99.90;;;;;;5049760;28;20465;-67
2021/12/02 06:23:21;;;;;;;19.17;14.30;;;4.60;99.90;;;;;;5049434;28;20551;-69
2021/12/02 06:25:49;;;;;;;25.50;15.30;;;4.60;99.90;;;;;;5049620;28;20595;-70
2021/12/02 06:28:17;;;;;;;22.97;15.50;;;4.70;99.90;;;;;;5049295;28;20511;-70
2021/12/02 06:30:45;;;;;;;20.93;14.33;;;4.70;99.90;;;;;;5049232;28;20471;-69
2021/12/02 06:33:14;;;;;;;18.77;13.97;;;4.60;99.90;;;;;;5049750;28;20491;-69
2021/12/02 06:35:41;;;;;;;20.90;15.80;;;4.60;99.90;;;;;;5049266;28;20977;-70
2021/12/02 06:38:09;;;;;;;25.40;16.10;;;4.50;99.90;;;;;;5049231;28;20453;-71
2021/12/02 06:40:38;;;;;;;20.60;14.37;;;4.50;99.90;;;;;;5049418;28;20956;-70
2021/12/02 06:43:06;;;;;;;20.40;14.50;;;4.70;99.90;;;;;;5049632;28;20480;-71
2021/12/02 06:45:33;;;;;;;21.90;13.53;;;4.80;99.90;;;;;;5049374;28;20969;-70
2021/12/02 06:48:00;;;;;;;22.67;16.00;;;4.90;99.90;;;;;;5049262;28;20453;-70
2021/12/02 06:50:31;;;;;;;22.23;15.90;;;4.90;99.90;;;;;;5049477;28;20933;-72
2021/12/02 06:52:58;;;;;;;23.50;16.63;;;5.00;99.90;;;;;;5049470;28;20461;-72
2021/12/02 06:55:26;;;;;;;25.97;17.57;;;5.00;99.90;;;;;;5049431;28;20481;-71
2021/12/02 06:57:53;;;;;;;24.73;18.77;;;5.00;99.90;;;;;;5049440;28;20461;-70
2021/12/02 07:00:22;;;;;;;25.50;18.23;;;4.90;99.90;;;;;;5048911;28;20923;-71
2021/12/02 07:02:52;;;;;;;31.73;21.80;;;5.00;99.90;;;;;;5049107;28;20895;-72
2021/12/02 07:05:19;;;;;;;30.70;23.27;;;5.00;99.90;;;;;;5049194;28;20967;-70
2021/12/02 07:07:48;;;;;;;36.33;27.33;;;5.00;99.90;;;;;;5049319;28;20449;-73
2021/12/02 07:10:20;;;;;;;37.40;29.10;;;5.20;99.90;;;;;;5048854;28;20991;-70
2021/12/02 07:12:49;;;;;;;48.17;32.37;;;5.10;99.90;;;;;;5048901;28;20542;-69
2021/12/02 07:15:18;;;;;;;53.13;39.10;;;5.20;99.90;;;;;;5049171;28;20466;-73
2021/12/02 07:17:46;;;;;;;59.60;43.37;;;5.30;99.90;;;;;;5049299;28;20481;-69
2021/12/02 07:20:14;;;;;;;60.07;41.97;;;5.30;99.90;;;;;;5049189;28;20946;-73
2021/12/02 07:22:41;;;;;;;55.17;42.47;;;5.30;99.90;;;;;;5049240;28;20465;-70
2021/12/02 07:25:11;;;;;;;54.67;38.97;;;5.30;99.90;;;;;;5049262;28;20474;-69
2021/12/02 07:27:38;;;;;;;49.20;35.87;;;5.40;99.90;;;;;;5048835;28;20814;-69
2021/12/02 07:30:07;;;;;;;61.23;45.00;;;5.50;99.90;;;;;;5048774;28;20449;-72
2021/12/02 07:32:37;;;;;;;58.03;42.00;;;5.60;99.90;;;;;;5048422;28;20465;-72
2021/12/02 07:35:09;;;;;;;57.67;43.30;;;5.50;99.90;;;;;;5048912;28;20938;-69
2021/12/02 07:37:36;;;;;;;50.97;38.00;;;5.60;99.90;;;;;;5049006;28;20529;-72
2021/12/02 07:40:05;;;;;;;47.30;34.60;;;5.90;99.90;;;;;;5048513;28;20946;-69
2021/12/02 07:42:33;;;;;;;45.67;34.97;;;6.00;99.90;;;;;;5049023;28;20446;-70
2021/12/02 07:45:01;;;;;;;39.20;32.17;;;6.30;99.90;;;;;;5048972;28;21008;-69
2021/12/02 07:47:28;;;;;;;44.03;32.70;;;6.50;99.90;;;;;;5048883;28;20486;-70
2021/12/02 07:49:55;;;;;;;37.43;29.90;;;6.70;99.90;;;;;;5048945;28;20461;-71
2021/12/02 07:52:26;;;;;;;44.07;30.60;;;7.00;99.90;;;;;;5052159;28;20513;-68
2021/12/02 07:54:55;;;;;;;40.53;30.97;;;7.20;99.90;;;;;;5052648;28;20524;-72
2021/12/02 07:57:23;;;;;;;38.97;28.87;;;7.30;99.90;;;;;;5052831;28;20545;-73
2021/12/02 07:59:53;;;;;;;36.60;27.00;;;7.40;99.90;;;;;;5051051;28;20568;-69
2021/12/02 08:02:22;;;;;;;33.80;25.30;;;7.40;99.90;;;;;;5052489;28;20985;-71
2021/12/02 08:04:49;;;;;;;39.30;27.73;;;7.40;99.90;;;;;;5052413;28;20474;-73
2021/12/02 08:07:16;;;;;;;38.57;28.40;;;7.60;99.90;;;;;;5052217;28;20490;-70
2021/12/02 08:09:43;;;;;;;33.33;25.57;;;7.80;99.90;;;;;;5052089;28;20467;-71
2021/12/02 08:12:11;;;;;;;27.77;20.40;;;8.10;99.90;;;;;;5052164;28;20513;-70
2021/12/02 08:14:38;;;;;;;31.57;22.87;;;8.40;99.90;;;;;;5052680;28;20491;-74
2021/12/02 08:17:07;;;;;;;39.40;25.60;;;8.50;99.90;;;;;;5052519;28;20460;-71
2021/12/02 08:19:35;;;;;;;45.50;29.97;;;8.70;99.90;;;;;;5052221;28;20449;-72
2021/12/02 08:22:02;;;;;;;26.50;19.87;;;8.90;99.90;;;;;;5052100;28;20952;-70
2021/12/02 08:24:29;;;;;;;25.57;18.70;;;9.10;99.90;;;;;;5051598;28;20485;-72
2021/12/02 08:26:57;;;;;;;23.50;16.90;;;9.40;99.90;;;;;;5052154;28;20551;-69
2021/12/02 08:29:24;;;;;;;23.73;15.43;;;9.40;99.90;;;;;;5052559;28;20540;-71
2021/12/02 08:31:51;;;;;;;20.00;14.70;;;9.70;99.90;;;;;;5052069;28;20449;-70
2021/12/02 08:34:20;;;;;;;22.57;15.87;;;9.80;99.90;;;;;;5051774;28;20449;-71
2021/12/02 08:36:50;;;;;;;22.57;17.97;;;10.10;99.90;;;;;;5052139;28;20453;-69
2021/12/02 08:39:22;;;;;;;27.37;19.60;;;10.40;99.90;;;;;;5052336;28;20458;-71
2021/12/02 08:41:50;;;;;;;15.93;13.53;;;10.60;99.90;;;;;;5052351;28;20968;-74
2021/12/02 08:44:18;;;;;;;25.67;15.37;;;10.90;99.90;;;;;;5051832;28;20465;-70
2021/12/02 08:46:47;;;;;;;21.10;14.40;;;11.10;99.90;;;;;;5051524;28;20497;-71
2021/12/02 08:49:15;;;;;;;18.70;13.20;;;11.20;99.90;;;;;;5051933;28;20450;-70
2021/12/02 08:51:44;;;;;;;23.60;14.03;;;11.40;99.90;;;;;;5051801;28;20461;-69
2021/12/02 08:54:11;;;;;;;15.53;12.00;;;11.50;99.90;;;;;;5051512;28;20857;-72
2021/12/02 08:56:38;;;;;;;18.20;12.73;;;11.20;99.90;;;;;;5051964;28;20445;-71
2021/12/02 08:59:05;;;;;;;16.60;12.93;;;11.20;99.90;;;;;;5051457;28;20487;-72
2021/12/02 09:01:34;;;;;;;20.73;11.47;;;11.30;99.90;;;;;;5051395;28;20485;-72
2021/12/02 09:04:02;;;;;;;13.10;9.90;;;11.50;99.90;;;;;;5051564;28;20453;-73
2021/12/02 09:06:29;;;;;;;14.87;9.57;;;11.50;99.80;;;;;;5051679;28;20497;-72
2021/12/02 09:08:59;;;;;;;19.10;10.97;;;11.60;99.30;;;;;;5051478;28;20461;-73
2021/12/02 09:11:29;;;;;;;22.50;15.57;;;11.70;99.90;;;;;;5050970;28;20505;-74
2021/12/02 09:13:58;;;;;;;18.37;13.83;;;11.90;99.20;;;;;;5051466;28;21039;-71
2021/12/02 09:16:26;;;;;;;16.90;12.63;;;12.20;99.80;;;;;;5051258;28;20470;-73
2021/12/02 09:18:54;;;;;;;15.37;11.10;;;12.50;97.00;;;;;;5051184;28;20461;-71
2021/12/02 09:21:21;;;;;;;20.77;12.07;;;12.40;96.00;;;;;;5051516;28;21129;-70
2021/12/02 09:23:49;;;;;;;18.67;11.37;;;12.60;95.80;;;;;;5050845;28;21126;-70
2021/12/02 09:26:17;;;;;;;21.63;16.73;;;12.60;96.30;;;;;;5050834;28;20498;-73
2021/12/02 09:28:52;;;;;;;22.10;19.13;;;12.90;96.00;;;;;;5051115;28;20488;-71
2021/12/02 09:31:19;;;;;;;18.77;16.77;;;12.90;95.40;;;;;;5051340;28;20465;-69
2021/12/02 09:33:47;;;;;;;20.27;16.90;;;12.80;95.50;;;;;;5050788;28;20934;-69
2021/12/02 09:36:14;;;;;;;20.30;15.97;;;12.90;96.10;;;;;;5050793;28;20557;-72
2021/12/02 09:38:41;;;;;;;22.87;14.97;;;13.00;95.70;;;;;;5050567;28;20454;-72
2021/12/02 09:41:08;;;;;;;26.20;13.50;;;13.20;95.20;;;;;;5050509;28;20450;-71
2021/12/02 09:43:37;;;;;;;16.13;11.93;;;13.30;94.00;;;;;;5050798;28;20580;-73
2021/12/02 09:46:04;;;;;;;15.80;11.77;;;13.50;92.50;;;;;;5050748;28;20497;-69
2021/12/02 09:48:33;;;;;;;18.93;10.43;;;13.50;93.10;;;;;;5050760;28;20467;-73
2021/12/02 09:51:05;;;;;;;16.50;9.23;;;13.30;93.20;;;;;;5050763;28;20460;-70
2021/12/02 09:53:37;;;;;;;16.93;10.17;;;13.20;91.90;;;;;;5050451;28;20450;-72
2021/12/02 09:56:13;;;;;;;11.90;8.97;;;13.30;92.90;;;;;;5050591;28;20978;-70
2021/12/02 09:58:41;;;;;;;12.83;7.90;;;13.50;90.80;;;;;;5050439;28;20456;-73
2021/12/02 10:01:10;;;;;;;13.27;8.13;;;13.40;90.40;;;;;;5050211;28;20488;-71
2021/12/02 10:03:39;;;;;;;12.73;9.00;;;13.40;91.80;;;;;;5049950;28;20473;-70
2021/12/02 10:06:09;;;;;;;14.70;9.30;;;13.60;91.90;;;;;;5050015;28;21120;-68
2021/12/02 10:08:44;;;;;;;17.50;9.00;;;13.80;91.80;;;;;;5050289;28;20490;-75
2021/12/02 10:11:15;;;;;;;16.03;8.40;;;14.20;88.30;;;;;;5048864;28;20492;-71
2021/12/02 10:13:49;;;;;;;13.20;8.87;;;14.30;88.30;;;;;;5049675;28;20461;-70
2021/12/02 10:16:23;;;;;;;9.47;7.17;;;14.40;90.00;;;;;;5050272;28;20495;-70
2021/12/02 10:19:01;;;;;;;15.93;8.27;;;14.50;91.30;;;;;;5050047;28;20551;-73
2021/12/02 10:21:36;;;;;;;18.13;7.93;;;14.60;87.40;;;;;;5049960;28;20499;-69
2021/12/02 10:24:06;;;;;;;10.73;7.13;;;14.70;90.40;;;;;;5049216;28;20453;-70
2021/12/02 10:26:39;;;;;;;8.93;5.80;;;14.80;90.10;;;;;;5049412;28;20497;-70
2021/12/02 10:29:14;;;;;;;9.17;5.50;;;15.20;84.90;;;;;;5049837;28;20473;-72
2021/12/02 10:31:46;;;;;;;12.23;7.00;;;15.40;86.10;;;;;;5049800;28;20528;-73
2021/12/02 10:34:14;;;;;;;9.93;6.63;;;15.50;85.00;;;;;;5049778;28;20530;-69
2021/12/02 10:36:44;;;;;;;11.53;7.83;;;15.60;84.00;;;;;;5049991;28;20454;-68
2021/12/02 10:39:14;;;;;;;12.70;6.90;;;15.70;82.10;;;;;;5049652;28;20523;-73
2021/12/02 10:41:44;;;;;;;8.77;6.27;;;15.80;83.60;;;;;;5049734;28;20466;-69
2021/12/02 10:44:20;;;;;;;10.87;6.80;;;15.80;81.00;;;;;;5049738;28;20453;-71
2021/12/02 10:47:01;;;;;;;13.50;7.07;;;15.80;82.60;;;;;;5049630;28;20481;-73
2021/12/02 10:49:32;;;;;;;10.83;7.10;;;15.90;83.40;;;;;;5049818;28;20584;-71
2021/12/02 10:52:03;;;;;;;12.17;8.30;;;16.20;78.90;;;;;;5049688;28;20456;-73
2021/12/02 10:54:32;;;;;;;13.40;8.20;;;16.10;80.60;;;;;;5049463;28;20962;-71
2021/12/02 10:57:07;;;;;;;11.23;7.70;;;16.30;77.80;;;;;;5049458;28;20847;-69
2021/12/02 10:59:43;;;;;;;11.80;8.73;;;16.40;80.00;;;;;;5049506;28;20481;-74
2021/12/02 11:02:20;;;;;;;11.20;7.97;;;16.60;77.60;;;;;;5049320;28;20450;-71
2021/12/02 11:04:49;;;;;;;12.60;9.10;;;16.70;76.20;;;;;;5049160;28;20930;-72
2021/12/02 11:07:22;;;;;;;11.17;8.30;;;16.80;78.70;;;;;;5049174;28;20493;-72
2021/12/02 11:09:52;;;;;;;12.33;8.40;;;16.90;72.90;;;;;;5049163;28;20461;-72
2021/12/02 11:12:23;;;;;;;11.50;7.17;;;17.00;78.90;;;;;;5048944;28;20911;-71
2021/12/02 11:15:11;;;;;;;16.80;6.97;;;17.00;73.00;;;;;;5048909;28;20474;-71
2021/12/02 11:17:48;;;;;;;11.67;7.00;;;16.90;74.20;;;;;;5049157;28;20453;-73
2021/12/02 11:20:21;;;;;;;15.50;11.70;;;17.10;70.50;;;;;;5049409;28;20457;-72
2021/12/02 11:22:49;;;;;;;12.20;8.67;;;17.30;72.40;;;;;;5049200;28;20461;-71
2021/12/02 11:25:18;;;;;;;12.90;7.00;;;17.30;73.50;;;;;;5051315;28;20680;-71
2021/12/02 11:27:49;;;;;;;12.83;8.50;;;17.30;74.60;;;;;;5053335;28;20543;-70
2021/12/02 11:30:20;;;;;;;13.10;7.90;;;17.60;71.90;;;;;;5052964;28;20465;-69
2021/12/02 11:32:51;;;;;;;13.93;8.87;;;17.60;68.60;;;;;;5053158;28;20515;-71
2021/12/02 11:35:31;;;;;;;9.40;7.87;;;17.60;73.60;;;;;;5052995;28;20997;-70
2021/12/02 11:38:03;;;;;;;12.57;8.03;;;17.90;71.60;;;;;;5052995;28;20445;-70
2021/12/02 11:40:33;;;;;;;15.40;6.67;;;17.90;70.90;;;;;;5052813;28;20964;-73
2021/12/02 11:43:00;;;;;;;12.70;6.50;;;18.30;71.40;;;;;;5053116;28;20461;-72
2021/12/02 11:45:31;;;;;;;11.37;7.27;;;18.60;67.30;;;;;;5052884;28;20481;-73
2021/12/02 11:47:59;;;;;;;10.77;7.57;;;18.60;67.70;;;;;;5052711;28;20490;-73
2021/12/02 11:50:29;;;;;;;11.00;7.80;;;18.80;66.00;;;;;;5052753;28;20464;-70
2021/12/02 11:52:57;;;;;;;13.00;7.23;;;18.70;66.30;;;;;;5052884;28;20568;-71
2021/12/02 11:55:27;;;;;;;11.60;7.30;;;18.70;66.90;;;;;;5052464;28;20480;-71
2021/12/02 11:57:54;;;;;;;14.43;7.83;;;18.90;63.70;;;;;;5052439;28;20552;-70
2021/12/02 12:00:24;;;;;;;12.70;8.90;;;18.90;65.80;;;;;;5052813;28;20456;-73
2021/12/02 12:02:56;;;;;;;12.67;8.77;;;19.10;65.70;;;;;;5052612;28;20454;-70
2021/12/02 12:05:28;;;;;;;16.10;9.27;;;19.20;65.40;;;;;;5052663;28;20477;-70
2021/12/02 12:07:56;;;;;;;14.00;8.80;;;19.20;63.00;;;;;;5051149;28;21051;-73
2021/12/02 12:10:27;;;;;;;15.33;8.57;;;19.30;64.30;;;;;;5052422;28;20457;-72
2021/12/02 12:13:13;;;;;;;11.77;7.90;;;19.30;63.90;;;;;;5051890;28;20500;-73
2021/12/02 12:15:42;;;;;;;14.67;10.03;;;19.30;61.80;;;;;;5052631;28;20474;-70
2021/12/02 12:18:18;;;;;;;12.50;10.07;;;19.10;61.60;;;;;;5052352;28;20454;-74
2021/12/02 12:20:58;;;;;;;14.20;10.40;;;18.70;61.50;;;;;;5052545;28;20446;-72
2021/12/02 12:23:33;;;;;;;13.30;10.00;;;18.70;64.00;;;;;;5052211;28;20461;-71
2021/12/02 12:26:23;;;;;;;11.80;8.23;;;18.90;62.00;;;;;;5051704;28;20786;-71
2021/12/02 12:29:27;;;;;;;16.63;9.57;;;19.10;65.00;;;;;;5051724;28;20489;-70
2021/12/02 12:35:59;;;;;;;14.77;9.03;;;19.90;60.80;;;;;;5040682;28;20448;-71
2021/12/02 12:38:28;;;;;;;14.57;10.80;;;20.10;61.50;;;;;;5051656;28;20454;-71
2021/12/02 12:40:57;;;;;;;12.40;9.00;;;20.10;60.00;;;;;;5051925;28;20466;-75
2021/12/02 12:43:37;;;;;;;12.90;9.37;;;20.10;59.20;;;;;;5052135;28;20536;-70
2021/12/02 12:46:13;;;;;;;13.30;8.53;;;19.90;59.20;;;;;;5052048;28;20453;-74
2021/12/02 12:48:41;;;;;;;13.97;8.90;;;19.90;59.20;;;;;;5051590;28;20493;-69
2021/12/02 12:51:38;;;;;;;14.57;8.97;;;19.80;59.80;;;;;;5051840;28;20484;-74
2021/12/02 12:54:07;;;;;;;18.20;12.23;;;19.90;59.50;;;;;;5051782;28;20453;-71